Time;durP1;ratioP1;P1;durP2;ratioP2;P2;SDS_P1;SDS_P2;PMS_P1;PMS_P2;Temp;Humidity;BMP_temperature;BMP_pressure;BME280_temperature;BME280_humidity;BME280_pressure;Samples;Min_cycle;Max_cycle;Signal;HPM_P1;HPM_P2
2023/12/01 00:01:38;;;;;;;41.03;22.23;;;0.80;99.90;;;;;;4889680;29;20347;-73
2023/12/01 00:04:04;;;;;;;37.03;22.33;;;0.80;99.90;;;;;;4889993;29;20183;-74
2023/12/01 00:06:29;;;;;;;38.20;23.03;;;0.80;99.90;;;;;;4875648;29;20235;-74
2023/12/01 00:08:55;;;;;;;31.70;19.83;;;0.70;99.90;;;;;;4890491;29;20184;-75
2023/12/01 00:11:20;;;;;;;27.73;18.90;;;0.70;99.90;;;;;;4891459;29;20192;-75
2023/12/01 00:13:46;;;;;;;31.57;20.20;;;0.60;99.90;;;;;;4888842;29;20200;-74
2023/12/01 00:16:13;;;;;;;29.40;17.80;;;0.50;99.90;;;;;;4891934;29;20223;-74
2023/12/01 00:18:38;;;;;;;35.03;19.33;;;0.40;99.90;;;;;;4890557;29;20184;-74
2023/12/01 00:21:04;;;;;;;24.83;18.17;;;0.30;99.90;;;;;;4888864;29;20825;-73
2023/12/01 00:23:31;;;;;;;28.07;17.63;;;0.10;99.90;;;;;;4890329;29;20216;-74
2023/12/01 00:25:56;;;;;;;30.87;19.70;;;0.00;99.90;;;;;;4887909;29;20520;-73
2023/12/01 00:28:22;;;;;;;29.90;18.30;;;-0.10;99.90;;;;;;4883385;29;20456;-73
2023/12/01 00:30:48;;;;;;;31.43;21.03;;;-0.10;99.90;;;;;;4887382;29;20416;-75
2023/12/01 00:33:14;;;;;;;30.43;20.30;;;-0.10;99.90;;;;;;4888357;29;20211;-74
2023/12/01 00:35:39;;;;;;;30.50;19.47;;;-0.10;99.90;;;;;;4888394;29;20449;-72
2023/12/01 00:38:06;;;;;;;25.97;17.33;;;-0.20;99.90;;;;;;4888065;29;20195;-74
2023/12/01 00:40:32;;;;;;;34.10;19.00;;;-0.20;99.90;;;;;;4888979;29;20206;-73
2023/12/01 00:42:57;;;;;;;32.83;20.67;;;-0.30;99.90;;;;;;4889318;29;20464;-75
2023/12/01 00:45:24;;;;;;;34.30;20.20;;;-0.30;99.90;;;;;;4872880;29;20458;-76
2023/12/01 00:47:49;;;;;;;36.63;20.47;;;-0.40;99.90;;;;;;4872800;29;20515;-74
2023/12/01 00:50:15;;;;;;;35.23;22.00;;;-0.30;99.90;;;;;;4887478;29;20184;-73
2023/12/01 00:52:41;;;;;;;31.27;18.97;;;-0.30;99.90;;;;;;4885877;29;20203;-75
2023/12/01 00:55:07;;;;;;;33.20;20.17;;;-0.20;99.90;;;;;;4886167;29;20302;-74
2023/12/01 00:57:32;;;;;;;34.27;19.17;;;-0.20;99.90;;;;;;4887860;29;20204;-74
2023/12/01 00:59:58;;;;;;;35.80;21.40;;;-0.30;99.90;;;;;;4887272;29;20224;-73
2023/12/01 01:02:23;;;;;;;35.07;20.17;;;-0.40;99.90;;;;;;4887152;29;20274;-73
2023/12/01 01:04:49;;;;;;;40.67;23.13;;;-0.30;99.90;;;;;;4885428;29;20529;-74
2023/12/01 01:07:15;;;;;;;41.27;22.60;;;-0.20;99.90;;;;;;4886083;29;20260;-73
2023/12/01 01:09:40;;;;;;;41.17;22.20;;;-0.20;99.90;;;;;;4888342;29;20164;-73
2023/12/01 01:12:06;;;;;;;37.33;21.73;;;-0.20;99.90;;;;;;4882731;29;20207;-74
2023/12/01 01:14:32;;;;;;;45.53;24.20;;;-0.10;99.90;;;;;;4881678;29;20196;-73
2023/12/01 01:16:57;;;;;;;48.90;23.57;;;-0.20;99.90;;;;;;4875609;29;20250;-73
2023/12/01 01:19:23;;;;;;;47.13;24.60;;;-0.10;99.90;;;;;;4882540;29;20192;-73
2023/12/01 01:21:49;;;;;;;48.77;24.87;;;0.00;99.90;;;;;;4881898;29;20253;-72
2023/12/01 01:24:14;;;;;;;47.33;25.57;;;0.00;99.90;;;;;;4882826;29;20565;-72
2023/12/01 01:26:40;;;;;;;55.77;28.43;;;0.00;99.90;;;;;;4882620;29;20295;-72
2023/12/01 01:29:06;;;;;;;57.93;25.80;;;0.00;99.90;;;;;;4871828;29;20252;-73
2023/12/01 01:31:31;;;;;;;45.60;25.60;;;0.10;99.90;;;;;;4880743;29;20484;-73
2023/12/01 01:33:57;;;;;;;48.13;27.40;;;0.10;99.90;;;;;;4882824;29;20206;-73
2023/12/01 01:36:23;;;;;;;53.87;26.37;;;0.20;99.90;;;;;;4882113;29;20199;-73
2023/12/01 01:38:49;;;;;;;53.90;29.43;;;0.20;99.90;;;;;;4882435;29;20664;-72
2023/12/01 01:41:15;;;;;;;48.43;28.20;;;0.30;99.90;;;;;;4882188;29;20348;-72
2023/12/01 01:43:41;;;;;;;52.63;27.10;;;0.30;99.90;;;;;;4874421;29;20978;-72
2023/12/01 01:46:11;;;;;;;57.40;28.73;;;0.30;99.90;;;;;;4875068;29;20220;-72
2023/12/01 01:48:37;;;;;;;48.87;25.87;;;0.40;99.90;;;;;;4882125;29;20206;-74
2023/12/01 01:51:05;;;;;;;49.70;24.80;;;0.40;99.90;;;;;;4882023;29;20408;-73
2023/12/01 01:53:31;;;;;;;43.70;23.77;;;0.40;99.90;;;;;;4880601;29;20436;-73
2023/12/01 01:55:58;;;;;;;40.73;22.40;;;0.50;99.90;;;;;;4881675;29;20463;-74
2023/12/01 01:58:25;;;;;;;50.27;26.30;;;0.50;99.90;;;;;;4874746;29;20420;-74
2023/12/01 02:00:51;;;;;;;54.93;26.20;;;0.50;99.90;;;;;;4881428;29;20536;-74
2023/12/01 02:03:18;;;;;;;52.47;26.23;;;0.50;99.90;;;;;;4880643;29;20460;-72
2023/12/01 02:05:48;;;;;;;50.33;26.77;;;0.50;99.90;;;;;;4880746;29;20476;-74
2023/12/01 02:08:25;;;;;;;49.40;25.43;;;0.60;99.90;;;;;;4881909;29;20423;-73
2023/12/01 02:10:54;;;;;;;53.23;27.77;;;0.60;99.90;;;;;;4881809;29;20428;-72
2023/12/01 02:13:21;;;;;;;46.57;24.97;;;0.60;99.90;;;;;;4874788;29;20463;-72
2023/12/01 02:15:50;;;;;;;41.10;23.67;;;0.60;99.90;;;;;;4876857;29;20449;-72
2023/12/01 02:18:28;;;;;;;46.03;26.10;;;0.60;99.90;;;;;;4880859;29;20424;-74
2023/12/01 02:20:55;;;;;;;45.97;24.70;;;0.70;99.90;;;;;;4880374;29;20443;-73
2023/12/01 02:23:21;;;;;;;42.27;23.27;;;0.70;99.90;;;;;;4880427;29;20472;-73
2023/12/01 02:25:48;;;;;;;42.83;23.10;;;0.70;99.90;;;;;;4881576;29;20444;-74
2023/12/01 02:28:14;;;;;;;43.50;22.90;;;0.70;99.90;;;;;;4877069;29;20226;-74
2023/12/01 02:30:41;;;;;;;50.50;28.43;;;0.70;99.90;;;;;;4881861;29;20844;-73
2023/12/01 02:33:07;;;;;;;48.83;26.97;;;0.80;99.90;;;;;;4881545;29;20416;-73
2023/12/01 02:35:34;;;;;;;58.63;29.00;;;0.80;99.90;;;;;;4883456;29;20484;-74
2023/12/01 02:38:00;;;;;;;45.10;23.93;;;0.80;99.90;;;;;;4885340;29;20210;-74
2023/12/01 02:40:27;;;;;;;50.23;27.93;;;0.80;99.90;;;;;;4885051;29;20936;-73
2023/12/01 02:42:53;;;;;;;48.60;24.07;;;0.80;99.90;;;;;;4881397;29;20569;-73
2023/12/01 02:45:20;;;;;;;50.03;24.97;;;0.90;99.90;;;;;;4882100;29;20440;-73
2023/12/01 02:47:49;;;;;;;48.53;27.30;;;0.90;99.90;;;;;;4884058;29;20470;-73
2023/12/01 02:50:18;;;;;;;42.40;23.87;;;0.90;99.90;;;;;;4885481;29;20810;-72
2023/12/01 02:52:44;;;;;;;40.13;22.87;;;0.90;99.90;;;;;;4885576;29;20452;-72
2023/12/01 02:55:11;;;;;;;39.97;23.53;;;0.80;99.90;;;;;;4885340;29;20523;-73
2023/12/01 02:57:39;;;;;;;39.57;23.23;;;0.90;99.90;;;;;;4881979;29;20440;-73
2023/12/01 03:00:13;;;;;;;35.80;21.83;;;0.80;99.90;;;;;;4885091;29;20416;-75
2023/12/01 03:02:43;;;;;;;41.03;21.47;;;0.70;99.90;;;;;;4884761;29;20493;-73
2023/12/01 03:05:09;;;;;;;36.57;22.80;;;0.70;99.90;;;;;;4886070;29;20748;-72
2023/12/01 03:07:36;;;;;;;37.60;20.77;;;0.60;99.90;;;;;;4885016;29;20412;-73
2023/12/01 03:10:02;;;;;;;39.53;19.73;;;0.60;99.90;;;;;;4885126;29;20420;-73
2023/12/01 03:12:28;;;;;;;36.50;19.80;;;0.60;99.90;;;;;;4881439;29;20428;-72
2023/12/01 03:14:54;;;;;;;36.77;20.97;;;0.50;99.90;;;;;;4883660;29;20460;-72
2023/12/01 03:17:23;;;;;;;36.47;19.90;;;0.50;99.90;;;;;;4876448;29;20231;-73
2023/12/01 03:19:50;;;;;;;38.27;19.20;;;0.60;99.90;;;;;;4884974;29;20248;-73
2023/12/01 03:22:16;;;;;;;33.13;19.30;;;0.50;99.90;;;;;;4883381;29;20468;-71
2023/12/01 03:24:43;;;;;;;35.20;20.40;;;0.50;99.90;;;;;;4884921;29;20705;-72
2023/12/01 03:27:08;;;;;;;36.43;21.07;;;0.50;99.90;;;;;;4883379;29;20429;-72
2023/12/01 03:29:38;;;;;;;31.23;17.97;;;0.50;99.90;;;;;;4877481;29;20428;-72
2023/12/01 03:32:07;;;;;;;36.30;21.47;;;0.40;99.90;;;;;;4875200;29;20195;-72
2023/12/01 03:34:33;;;;;;;35.47;19.13;;;0.40;99.90;;;;;;4884562;29;20476;-73
2023/12/01 03:36:58;;;;;;;34.83;19.30;;;0.30;99.90;;;;;;4884822;29;20456;-73
2023/12/01 03:39:25;;;;;;;34.60;18.00;;;0.30;99.90;;;;;;4876924;29;20204;-72
2023/12/01 03:41:51;;;;;;;38.40;20.73;;;0.30;99.90;;;;;;4885364;29;20291;-72
2023/12/01 03:44:16;;;;;;;43.87;22.37;;;0.30;99.90;;;;;;4877604;29;20432;-72
2023/12/01 03:46:43;;;;;;;36.47;20.37;;;0.30;99.90;;;;;;4876996;29;20447;-72
2023/12/01 03:49:09;;;;;;;35.17;20.10;;;0.30;99.90;;;;;;4884880;29;20278;-72
2023/12/01 03:51:36;;;;;;;35.37;19.60;;;0.30;99.90;;;;;;4884055;29;20503;-73
2023/12/01 03:54:02;;;;;;;37.23;19.60;;;0.20;99.90;;;;;;4884480;29;20199;-72
2023/12/01 03:56:28;;;;;;;34.00;19.10;;;0.20;99.90;;;;;;4884266;29;20448;-73
2023/12/01 03:58:55;;;;;;;40.37;21.40;;;0.30;99.90;;;;;;4875524;29;20210;-74
2023/12/01 04:01:21;;;;;;;36.27;20.20;;;0.20;99.90;;;;;;4883326;29;20880;-73
2023/12/01 04:03:47;;;;;;;37.53;20.57;;;0.20;99.90;;;;;;4883026;29;20420;-73
2023/12/01 04:06:13;;;;;;;40.50;22.53;;;0.20;99.90;;;;;;4883021;29;20523;-73
2023/12/01 04:08:38;;;;;;;38.73;21.10;;;0.20;99.90;;;;;;4883837;29;20243;-73
2023/12/01 04:11:06;;;;;;;36.60;20.13;;;0.20;99.90;;;;;;4882856;29;20521;-73
2023/12/01 04:13:32;;;;;;;32.00;20.57;;;0.20;99.90;;;;;;4875207;29;20215;-73
2023/12/01 04:15:59;;;;;;;40.03;21.07;;;0.20;99.90;;;;;;4876316;29;20596;-73
2023/12/01 04:18:29;;;;;;;36.07;21.10;;;0.20;99.90;;;;;;4884240;29;20460;-73
2023/12/01 04:20:54;;;;;;;35.00;20.10;;;0.20;99.90;;;;;;4883977;29;20682;-73
2023/12/01 04:23:20;;;;;;;42.47;23.30;;;0.20;99.90;;;;;;4883605;29;20476;-73
2023/12/01 04:25:46;;;;;;;35.57;20.30;;;0.20;99.90;;;;;;4883436;29;20218;-73
2023/12/01 04:28:13;;;;;;;38.83;21.27;;;0.20;99.90;;;;;;4876412;29;20192;-73
2023/12/01 04:30:40;;;;;;;39.93;21.13;;;0.30;99.90;;;;;;4882059;29;20435;-74
2023/12/01 04:33:06;;;;;;;35.70;20.47;;;0.30;99.90;;;;;;4883278;29;20435;-72
2023/12/01 04:35:34;;;;;;;37.70;21.37;;;0.20;99.90;;;;;;4883923;29;20440;-73
2023/12/01 04:38:03;;;;;;;32.77;20.33;;;0.20;99.90;;;;;;4886024;29;20751;-72
2023/12/01 04:40:30;;;;;;;36.77;21.07;;;0.20;99.90;;;;;;4888502;29;20489;-73
2023/12/01 04:42:57;;;;;;;33.13;18.53;;;0.20;99.90;;;;;;4883763;29;20492;-73
2023/12/01 04:45:27;;;;;;;32.90;18.13;;;0.20;99.90;;;;;;4887342;29;20444;-74
2023/12/01 04:47:55;;;;;;;32.17;18.40;;;0.20;99.90;;;;;;4888477;29;20499;-72
2023/12/01 04:50:24;;;;;;;34.97;20.80;;;0.20;99.90;;;;;;4890569;29;20428;-73
2023/12/01 04:52:57;;;;;;;28.97;17.47;;;0.20;99.90;;;;;;4890843;29;20526;-76
2023/12/01 04:55:25;;;;;;;38.00;20.70;;;0.20;99.90;;;;;;4891383;29;20737;-73
2023/12/01 04:57:51;;;;;;;34.83;20.37;;;0.20;99.90;;;;;;4886294;29;20436;-72
2023/12/01 05:00:21;;;;;;;34.73;19.40;;;0.30;99.90;;;;;;4886100;29;20451;-73
2023/12/01 05:02:53;;;;;;;31.20;17.00;;;0.20;99.90;;;;;;4889219;29;20468;-74
2023/12/01 05:05:23;;;;;;;29.47;15.13;;;0.30;99.90;;;;;;4889325;29;20527;-73
2023/12/01 05:07:52;;;;;;;28.83;17.37;;;0.20;99.90;;;;;;4889185;29;20429;-72
2023/12/01 05:10:22;;;;;;;32.13;17.23;;;0.30;99.90;;;;;;4872481;29;20431;-74
2023/12/01 05:12:49;;;;;;;27.60;16.77;;;0.20;99.90;;;;;;4890402;29;20522;-73
2023/12/01 05:15:19;;;;;;;34.30;19.20;;;0.30;99.90;;;;;;4887536;29;20489;-74
2023/12/01 05:17:50;;;;;;;32.87;19.47;;;0.30;99.90;;;;;;4886183;29;20474;-73
2023/12/01 05:20:16;;;;;;;32.77;18.10;;;0.30;99.90;;;;;;4888002;29;20503;-74
2023/12/01 05:22:50;;;;;;;33.87;18.20;;;0.30;99.90;;;;;;4886659;29;20977;-73
2023/12/01 05:25:17;;;;;;;27.40;16.70;;;0.30;99.90;;;;;;4889231;29;20448;-73
2023/12/01 05:27:51;;;;;;;31.90;18.40;;;0.40;99.90;;;;;;4888830;29;20451;-73
2023/12/01 05:30:18;;;;;;;32.07;18.07;;;0.40;99.90;;;;;;4879836;29;20507;-74
2023/12/01 05:32:46;;;;;;;30.47;17.83;;;0.40;99.90;;;;;;4887324;29;20416;-73
2023/12/01 05:35:13;;;;;;;26.57;15.63;;;0.40;99.90;;;;;;4885817;29;20482;-72
2023/12/01 05:37:50;;;;;;;31.00;18.07;;;0.40;99.90;;;;;;4886123;29;20472;-74
2023/12/01 05:40:23;;;;;;;33.97;18.37;;;0.40;99.90;;;;;;4886789;29;20519;-76
2023/12/01 05:42:52;;;;;;;28.27;16.67;;;0.40;99.90;;;;;;4884639;29;20464;-74
2023/12/01 05:45:23;;;;;;;32.00;20.07;;;0.40;99.90;;;;;;4887005;29;20552;-72
2023/12/01 05:47:52;;;;;;;29.03;16.77;;;0.40;99.90;;;;;;4885924;29;20443;-74
2023/12/01 05:50:25;;;;;;;27.97;18.17;;;0.40;99.90;;;;;;4887670;29;20435;-74
2023/12/01 05:52:53;;;;;;;27.53;17.40;;;0.40;99.90;;;;;;4871016;29;20436;-74
2023/12/01 05:55:20;;;;;;;30.27;17.27;;;0.40;99.90;;;;;;4887672;29;20452;-74
2023/12/01 05:57:47;;;;;;;27.53;15.03;;;0.40;99.90;;;;;;4887115;29;20436;-73
2023/12/01 06:00:19;;;;;;;28.10;16.80;;;0.40;99.90;;;;;;4887834;29;20443;-75
2023/12/01 06:02:46;;;;;;;31.43;16.50;;;0.40;99.90;;;;;;4887016;29;20810;-72
2023/12/01 06:05:17;;;;;;;31.17;15.07;;;0.40;99.90;;;;;;4887693;29;20523;-74
2023/12/01 06:07:45;;;;;;;25.57;16.37;;;0.40;99.90;;;;;;4889188;29;20448;-74
2023/12/01 06:10:12;;;;;;;24.73;14.63;;;0.50;99.90;;;;;;4885662;29;20436;-74
2023/12/01 06:12:39;;;;;;;24.43;13.57;;;0.50;99.90;;;;;;4881763;29;20481;-74
2023/12/01 06:15:07;;;;;;;29.00;15.80;;;0.50;99.90;;;;;;4882811;29;20564;-73
2023/12/01 06:17:34;;;;;;;21.57;13.10;;;0.50;99.90;;;;;;4886790;29;20868;-74
2023/12/01 06:19:59;;;;;;;27.50;15.30;;;0.50;99.90;;;;;;4886338;29;20503;-74
2023/12/01 06:22:25;;;;;;;26.10;15.57;;;0.50;99.90;;;;;;4888172;29;20472;-77
2023/12/01 06:24:51;;;;;;;27.30;14.77;;;0.50;99.90;;;;;;4889874;29;20347;-78
2023/12/01 06:27:16;;;;;;;24.03;13.70;;;0.50;99.90;;;;;;4870587;29;20195;-75
2023/12/01 06:29:43;;;;;;;28.47;16.93;;;0.60;99.90;;;;;;4876157;29;20876;-73
2023/12/01 06:32:09;;;;;;;21.83;14.20;;;0.60;99.90;;;;;;4888557;29;20279;-74
2023/12/01 06:34:35;;;;;;;22.90;13.33;;;0.60;99.90;;;;;;4886968;29;20452;-75
2023/12/01 06:37:01;;;;;;;27.67;16.93;;;0.60;99.90;;;;;;4871277;29;20214;-76
2023/12/01 06:39:27;;;;;;;31.70;16.77;;;0.60;99.90;;;;;;4889156;29;20317;-75
2023/12/01 06:41:53;;;;;;;23.60;13.57;;;0.70;99.90;;;;;;4890376;29;20496;-78
2023/12/01 06:44:20;;;;;;;20.87;13.93;;;0.80;99.90;;;;;;4866217;29;20856;-77
2023/12/01 06:46:45;;;;;;;21.00;12.80;;;0.80;99.90;;;;;;4885783;29;20428;-77
2023/12/01 06:49:13;;;;;;;23.90;15.67;;;0.70;99.90;;;;;;4890037;29;20425;-76
2023/12/01 06:51:39;;;;;;;23.93;14.23;;;0.70;99.90;;;;;;4889315;29;20615;-74
2023/12/01 06:54:09;;;;;;;19.77;11.90;;;0.70;99.90;;;;;;4887915;29;20891;-75
2023/12/01 06:56:36;;;;;;;18.20;12.27;;;0.70;99.90;;;;;;4887122;29;20463;-74
2023/12/01 06:59:02;;;;;;;20.63;12.40;;;0.60;99.90;;;;;;4876003;29;20417;-74
2023/12/01 07:01:27;;;;;;;20.53;13.50;;;0.60;99.90;;;;;;4888032;29;20434;-75
2023/12/01 07:03:53;;;;;;;20.10;11.40;;;0.60;99.90;;;;;;4888260;29;20476;-75
2023/12/01 07:06:19;;;;;;;15.03;9.30;;;0.60;99.90;;;;;;4889015;29;20321;-76
2023/12/01 07:08:45;;;;;;;15.13;8.60;;;0.70;99.90;;;;;;4891200;29;20196;-76
2023/12/01 07:11:11;;;;;;;11.67;8.50;;;0.70;99.90;;;;;;4893718;29;20463;-75
2023/12/01 07:13:36;;;;;;;16.43;11.03;;;0.70;99.90;;;;;;4890835;29;20544;-76
2023/12/01 07:16:09;;;;;;;16.23;10.70;;;0.60;99.90;;;;;;4887117;29;20246;-75
2023/12/01 07:18:40;;;;;;;11.60;8.53;;;0.70;99.90;;;;;;4892287;29;20211;-76
2023/12/01 07:21:06;;;;;;;14.00;9.10;;;0.70;99.90;;;;;;4875829;29;20492;-76
2023/12/01 07:23:34;;;;;;;17.27;10.90;;;0.70;99.90;;;;;;4892448;29;20455;-75
2023/12/01 07:26:00;;;;;;;26.63;11.77;;;0.70;99.90;;;;;;4891321;29;20450;-73
2023/12/01 07:28:25;;;;;;;17.73;11.17;;;0.70;99.90;;;;;;4875920;29;20495;-75
2023/12/01 07:30:51;;;;;;;19.63;12.77;;;0.70;99.90;;;;;;4877034;29;20211;-77
2023/12/01 07:33:17;;;;;;;19.73;11.47;;;0.70;99.90;;;;;;4894403;29;20284;-77
2023/12/01 07:35:44;;;;;;;17.80;11.77;;;0.70;99.90;;;;;;4891060;29;20440;-75
2023/12/01 07:38:10;;;;;;;17.60;10.00;;;0.70;99.90;;;;;;4893399;29;20251;-77
2023/12/01 07:40:36;;;;;;;14.10;8.87;;;0.70;99.90;;;;;;4893941;29;20424;-77
2023/12/01 07:43:05;;;;;;;13.33;8.90;;;0.70;99.90;;;;;;4889147;29;20480;-76
2023/12/01 07:45:32;;;;;;;14.93;9.07;;;0.70;99.90;;;;;;4890272;29;20895;-75
2023/12/01 07:47:57;;;;;;;14.63;8.90;;;0.70;99.90;;;;;;4891840;29;20444;-76
2023/12/01 07:50:25;;;;;;;19.97;9.97;;;0.90;99.90;;;;;;4891481;29;20428;-75
2023/12/01 07:52:51;;;;;;;16.30;10.00;;;0.90;99.90;;;;;;4892693;29;20196;-77
2023/12/01 07:55:19;;;;;;;15.10;9.80;;;0.80;99.90;;;;;;4892334;29;20456;-74
2023/12/01 07:57:46;;;;;;;12.90;8.70;;;0.80;99.90;;;;;;4891317;29;20440;-75
2023/12/01 08:00:16;;;;;;;14.30;9.20;;;0.90;99.90;;;;;;4891924;29;20436;-75
2023/12/01 08:02:45;;;;;;;13.20;7.90;;;0.90;99.90;;;;;;4892607;29;20476;-77
2023/12/01 08:05:14;;;;;;;17.27;9.63;;;0.80;99.90;;;;;;4891166;29;20552;-74
2023/12/01 08:07:44;;;;;;;16.40;10.00;;;0.80;99.90;;;;;;4890839;29;20429;-76
2023/12/01 08:10:14;;;;;;;15.97;9.83;;;0.90;99.90;;;;;;4893003;29;20491;-75
2023/12/01 08:12:43;;;;;;;19.63;9.23;;;0.90;99.90;;;;;;4890446;29;20436;-77
2023/12/01 08:15:10;;;;;;;17.53;8.70;;;0.90;99.90;;;;;;4891346;29;20568;-76
2023/12/01 08:17:37;;;;;;;15.93;9.10;;;0.90;99.90;;;;;;4890699;29;20444;-77
2023/12/01 08:20:05;;;;;;;19.50;8.57;;;0.90;99.90;;;;;;4892618;29;20455;-76
2023/12/01 08:22:31;;;;;;;13.20;8.10;;;0.90;99.90;;;;;;4862655;29;20468;-76
2023/12/01 08:24:59;;;;;;;15.17;8.17;;;0.80;99.90;;;;;;4894243;29;20519;-78
2023/12/01 08:27:25;;;;;;;14.70;8.50;;;0.80;99.90;;;;;;4875777;29;20468;-75
2023/12/01 08:29:52;;;;;;;13.20;8.00;;;0.80;99.90;;;;;;4868382;29;20440;-79
2023/12/01 08:32:18;;;;;;;11.90;7.63;;;0.80;99.90;;;;;;4869823;29;20287;-76
2023/12/01 08:34:44;;;;;;;14.60;8.23;;;0.90;99.90;;;;;;4892733;29;20483;-76
2023/12/01 08:37:10;;;;;;;12.67;7.80;;;0.90;99.90;;;;;;4877322;29;20507;-77
2023/12/01 08:39:36;;;;;;;12.33;7.43;;;0.90;99.90;;;;;;4886244;29;20428;-77
2023/12/01 08:42:02;;;;;;;14.30;8.83;;;0.90;99.90;;;;;;4868235;29;20217;-77
2023/12/01 08:44:28;;;;;;;11.33;7.63;;;0.90;99.90;;;;;;4877180;29;20492;-76
2023/12/01 08:46:54;;;;;;;13.07;7.30;;;0.90;99.90;;;;;;4878475;29;20461;-79
2023/12/01 08:49:19;;;;;;;14.03;7.80;;;0.90;99.90;;;;;;4878542;29;20287;-75
2023/12/01 08:51:45;;;;;;;12.53;8.10;;;0.90;99.90;;;;;;4895388;29;20223;-78
2023/12/01 08:54:11;;;;;;;13.30;9.00;;;0.90;99.90;;;;;;4897038;29;20199;-76
2023/12/01 08:56:37;;;;;;;12.67;7.90;;;0.90;99.90;;;;;;4877384;29;20627;-79
2023/12/01 08:59:03;;;;;;;15.30;9.70;;;0.90;99.90;;;;;;4894509;29;20196;-79
2023/12/01 09:01:29;;;;;;;14.10;8.03;;;0.90;99.90;;;;;;4869135;29;20528;-76
2023/12/01 09:03:56;;;;;;;17.43;8.30;;;0.80;99.90;;;;;;4877530;29;20175;-77
2023/12/01 09:06:23;;;;;;;16.00;8.40;;;0.90;99.90;;;;;;4864751;29;20391;-76
2023/12/01 09:08:48;;;;;;;10.77;6.47;;;0.80;99.90;;;;;;4894122;29;20417;-76
2023/12/01 09:11:14;;;;;;;18.37;10.27;;;0.90;99.90;;;;;;4893289;29;20501;-76
2023/12/01 09:13:40;;;;;;;12.53;7.13;;;0.90;99.90;;;;;;4895235;29;20248;-78
2023/12/01 09:16:06;;;;;;;14.07;7.50;;;0.90;99.90;;;;;;4894850;29;20247;-79
2023/12/01 09:18:32;;;;;;;11.07;7.30;;;0.90;99.90;;;;;;4878095;29;20195;-77
2023/12/01 09:20:58;;;;;;;13.27;7.07;;;0.90;99.90;;;;;;4873231;29;20431;-76
2023/12/01 09:23:24;;;;;;;8.73;5.77;;;0.90;99.90;;;;;;4897683;29;20214;-76
2023/12/01 09:25:51;;;;;;;9.50;6.20;;;0.90;99.90;;;;;;4898432;29;20279;-76
2023/12/01 09:28:17;;;;;;;9.17;5.30;;;0.90;99.90;;;;;;4888337;29;20428;-75
2023/12/01 09:30:43;;;;;;;9.43;6.40;;;0.90;99.90;;;;;;4877841;29;20470;-76
2023/12/01 09:33:09;;;;;;;11.03;4.90;;;1.00;99.90;;;;;;4862561;29;20469;-77
2023/12/01 09:35:35;;;;;;;8.50;4.90;;;1.00;99.90;;;;;;4894567;29;20459;-76
2023/12/01 09:38:00;;;;;;;11.63;5.93;;;1.00;99.90;;;;;;4861290;29;20428;-75
2023/12/01 09:40:26;;;;;;;10.43;5.60;;;1.00;99.90;;;;;;4859250;29;20185;-75
2023/12/01 09:42:53;;;;;;;11.20;6.60;;;1.00;99.90;;;;;;4863115;29;20220;-78
2023/12/01 09:45:21;;;;;;;10.53;5.60;;;1.00;99.90;;;;;;4893096;29;20203;-77
2023/12/01 09:48:02;;;;;;;11.13;6.97;;;1.00;99.90;;;;;;4892352;29;20558;-77
2023/12/01 09:50:27;;;;;;;11.00;7.10;;;1.00;99.90;;;;;;4883140;29;20433;-77
2023/12/01 09:52:53;;;;;;;10.90;6.77;;;1.00;99.90;;;;;;4894563;29;20407;-77
2023/12/01 09:55:20;;;;;;;10.80;7.43;;;1.00;99.90;;;;;;4878201;29;20251;-77
2023/12/01 09:57:45;;;;;;;11.03;6.90;;;1.00;99.90;;;;;;4887859;29;20437;-76
2023/12/01 10:00:12;;;;;;;12.30;7.30;;;0.90;99.90;;;;;;4884867;29;20445;-77
2023/12/01 10:02:41;;;;;;;8.93;5.87;;;0.90;99.90;;;;;;4892320;29;20235;-77
2023/12/01 10:05:08;;;;;;;10.20;6.10;;;0.90;99.90;;;;;;4896242;29;20452;-76
2023/12/01 10:07:37;;;;;;;10.53;6.50;;;0.90;99.90;;;;;;4890062;29;20469;-74
2023/12/01 10:10:24;;;;;;;9.97;6.40;;;1.00;99.90;;;;;;4860538;29;20733;-76
2023/12/01 10:12:56;;;;;;;13.47;7.97;;;1.00;99.90;;;;;;4897001;29;20436;-77
2023/12/01 10:15:24;;;;;;;12.30;6.53;;;1.00;99.90;;;;;;4895729;29;20733;-75
2023/12/01 10:17:55;;;;;;;11.00;6.20;;;1.00;99.90;;;;;;4894871;29;20469;-77
2023/12/01 10:20:23;;;;;;;11.10;6.40;;;1.00;99.90;;;;;;4862279;29;20428;-75
2023/12/01 10:22:52;;;;;;;11.23;7.13;;;1.00;99.90;;;;;;4892693;29;20753;-76
2023/12/01 10:25:18;;;;;;;9.17;6.57;;;1.00;99.90;;;;;;4890034;29;20487;-78
2023/12/01 10:27:54;;;;;;;12.80;8.47;;;1.00;99.90;;;;;;4891391;29;20421;-78
2023/12/01 10:30:20;;;;;;;10.70;6.87;;;1.00;99.90;;;;;;4892690;29;20789;-77
2023/12/01 10:32:47;;;;;;;10.30;7.07;;;1.00;99.90;;;;;;4892380;29;20408;-79
2023/12/01 10:35:13;;;;;;;11.97;7.37;;;1.00;99.90;;;;;;4893480;29;20471;-76
2023/12/01 10:37:39;;;;;;;15.50;7.10;;;1.00;99.90;;;;;;4899066;29;20767;-80
2023/12/01 10:40:08;;;;;;;11.00;7.17;;;1.00;99.90;;;;;;4894914;29;20487;-79
2023/12/01 10:42:34;;;;;;;11.63;7.17;;;1.00;99.90;;;;;;4862045;29;20551;-78
2023/12/01 10:45:04;;;;;;;11.87;8.30;;;1.00;99.90;;;;;;4876749;29;20509;-77
2023/12/01 10:47:33;;;;;;;12.07;6.90;;;0.90;99.90;;;;;;4888421;29;20421;-79
2023/12/01 10:50:02;;;;;;;14.07;7.70;;;0.90;99.90;;;;;;4864504;29;20413;-78
2023/12/01 10:52:29;;;;;;;10.23;6.70;;;0.90;99.90;;;;;;4877581;29;20701;-78
2023/12/01 10:54:58;;;;;;;9.60;6.60;;;0.90;99.90;;;;;;4877695;29;20952;-79
2023/12/01 10:57:33;;;;;;;10.40;6.67;;;0.90;99.90;;;;;;4863203;29;20458;-77
2023/12/01 11:00:01;;;;;;;13.70;8.07;;;0.90;99.90;;;;;;4868076;29;20436;-77
2023/12/01 11:02:29;;;;;;;14.37;7.93;;;0.90;99.90;;;;;;4897984;29;20467;-79
2023/12/01 11:04:56;;;;;;;10.03;6.43;;;0.90;99.90;;;;;;4895998;29;20556;-76
2023/12/01 11:07:46;;;;;;;10.00;6.70;;;0.90;99.90;;;;;;4898034;29;20439;-76
2023/12/01 11:10:37;;;;;;;9.93;6.57;;;1.00;99.90;;;;;;4897114;29;20404;-77
2023/12/01 11:13:12;;;;;;;11.20;6.10;;;1.10;99.90;;;;;;4888973;29;20440;-79
2023/12/01 11:15:40;;;;;;;7.70;6.07;;;1.20;99.90;;;;;;4871988;29;20927;-79
2023/12/01 11:18:08;;;;;;;7.30;6.03;;;1.30;99.90;;;;;;4882211;29;20417;-77
2023/12/01 11:20:46;;;;;;;8.07;5.87;;;1.30;99.90;;;;;;4872854;29;20404;-78
2023/12/01 11:23:12;;;;;;;12.87;7.20;;;1.30;99.90;;;;;;4881847;29;20436;-79
2023/12/01 11:25:43;;;;;;;8.20;6.00;;;1.30;99.90;;;;;;4897514;29;20436;-79
2023/12/01 11:31:22;;;;;;;7.67;5.73;;;1.40;99.90;;;;;;4898846;29;20502;-78
2023/12/01 11:33:51;;;;;;;7.67;4.97;;;1.50;99.90;;;;;;4899567;29;20420;-79
2023/12/01 11:36:34;;;;;;;6.57;4.17;;;1.60;99.90;;;;;;4897419;29;20480;-77
2023/12/01 11:39:23;;;;;;;6.10;3.93;;;1.60;99.90;;;;;;4893476;29;20480;-78
2023/12/01 11:42:13;;;;;;;6.23;4.27;;;1.70;99.90;;;;;;4846489;29;20426;-78
2023/12/01 11:44:40;;;;;;;7.87;4.37;;;1.70;99.80;;;;;;4868958;29;20436;-80
2023/12/01 11:47:09;;;;;;;8.70;5.47;;;1.70;97.80;;;;;;4892172;29;20440;-77
2023/12/01 11:49:40;;;;;;;7.83;4.70;;;1.70;99.10;;;;;;4898326;29;20428;-78
2023/12/01 11:52:07;;;;;;;6.80;4.47;;;1.70;99.10;;;;;;4897537;29;20856;-79
2023/12/01 11:54:37;;;;;;;12.20;5.60;;;1.70;99.00;;;;;;4884049;29;20472;-79
2023/12/01 11:57:12;;;;;;;6.60;4.70;;;1.70;99.20;;;;;;4883503;29;20456;-79
2023/12/01 11:59:38;;;;;;;7.00;5.20;;;1.70;99.20;;;;;;4899165;29;20419;-78
2023/12/01 12:02:11;;;;;;;10.03;5.57;;;1.70;99.10;;;;;;4896737;29;20524;-79
2023/12/01 12:04:39;;;;;;;6.67;4.33;;;1.60;98.80;;;;;;4899065;29;20424;-80
2023/12/01 12:07:06;;;;;;;12.60;5.70;;;1.60;98.40;;;;;;4878914;29;20469;-76
2023/12/01 12:09:35;;;;;;;8.70;5.77;;;1.60;97.90;;;;;;4895713;29;20420;-79
2023/12/01 12:12:04;;;;;;;8.03;5.17;;;1.60;98.20;;;;;;4898820;29;20431;-78
2023/12/01 12:14:31;;;;;;;10.27;6.87;;;1.60;97.90;;;;;;4883065;29;20856;-78
2023/12/01 12:16:58;;;;;;;8.53;6.67;;;1.70;96.70;;;;;;4857098;29;20456;-79
2023/12/01 12:19:24;;;;;;;10.90;6.37;;;1.60;96.80;;;;;;4898976;29;20453;-78
2023/12/01 12:21:51;;;;;;;9.40;6.43;;;1.50;97.00;;;;;;4897734;29;20432;-79
2023/12/01 12:24:17;;;;;;;9.67;5.70;;;1.50;97.10;;;;;;4883899;29;20172;-79
2023/12/01 12:26:43;;;;;;;7.07;5.53;;;1.60;96.40;;;;;;4882665;29;20542;-78
2023/12/01 12:29:10;;;;;;;8.90;6.30;;;1.50;96.80;;;;;;4882906;29;20420;-79
2023/12/01 12:31:37;;;;;;;16.80;7.33;;;1.50;97.20;;;;;;4897176;29;20413;-79
2023/12/01 12:34:06;;;;;;;9.90;6.23;;;1.50;97.00;;;;;;4884566;29;20424;-79
2023/12/01 12:36:34;;;;;;;9.67;6.20;;;1.50;96.60;;;;;;4875922;29;20465;-79
2023/12/01 12:39:03;;;;;;;11.40;6.67;;;1.50;96.90;;;;;;4866354;29;20441;-81
2023/12/01 12:41:36;;;;;;;12.23;7.40;;;1.40;96.80;;;;;;4874297;29;20832;-78
2023/12/01 12:44:04;;;;;;;12.57;6.93;;;1.40;97.40;;;;;;4876616;29;20553;-77
2023/12/01 12:46:35;;;;;;;11.40;6.83;;;1.50;97.10;;;;;;4881640;29;20457;-79